New Albany, MS (38652)

8:51 AM CDT on July 24, 2014 (GMT -0500)
Northhaven (KMSNEWAL2) Elev 364 ft | 34.51 °N, 89.00 °W | Change Station

Current weather conditions updated 1 minute ago

Partly Cloudy
Partly Cloudy
73.4 °F
Feels Like 73.4 °F
N
3.2
Wind Variable Wind from North

Today is forecast to be Much Cooler than yesterday.

Today
High -- | Low -- °F
--% Chance of Precip.
Yesterday
High -- | Low -- °F
Precip. -- in
6:00 AM 8:03 PM
Waning Crescent, 5% visible
Pressure 30.01 in
Visibility 10.0 miles
Clouds Few 7000 ft
Dew Point 72 °F
Humidity 95%
Rainfall 0.00 in
Snow Depth Not available.
UV 2 out of 12
Pollen 3.90 out of 12
Air Quality Not available.
Flu Activity Not available.
METAR KTUP 241253Z AUTO 02004KT 10SM FEW070 23/20 A3003 RMK AO2 SLP163 T02280200

More Conditions Fewer Conditions

Pressure 30.01 in
Visibility 10.0 miles
Clouds Few 7000 ft
Dew Point 72 °F
Humidity 95%
Rainfall 0.00 in
Snow Depth Not available.
UV 2 out of 12
Pollen 3.90 out of 12
Air Quality Not available.
Flu Activity Not available.
METAR KTUP 241253Z AUTO 02004KT 10SM FEW070 23/20 A3003 RMK AO2 SLP163 T02280200

More Conditions Fewer Conditions

10-Day Weather Forecast

Almanac

Astronomy

Jul. 24, 2014 Rise Set
Actual Time 6:00 AM CDT 8:03 PM CDT
Civil Twilight 5:32 AM CDT 8:32 PM CDT
Nautical Twilight 4:58 AM CDT 9:06 PM CDT
Astronomical Twilight 4:21 AM CDT 9:42 PM CDT
Moon 4:07 AM CDT 6:20 PM CDT
Length of Visible Light 14h 59m
Length of Day
14h 03m
Tomorrow will be 1m 24s shorter.
Waning Crescent, 5% of the Moon is Illuminated
Today
Waning Crescent
Jul 26
New
Aug 3
First Quarter
Aug 10
Full
Aug 17
Last Quarter

Today's Extremes

State Highs State Lows

Community

WunderPhotos

Upload Photos

1,736,999 photos uploaded!

Nearby

Snow Depth

Station Depth Elevation
No new snow has been reported.

Earthquake Activity

City Distance Mag. Time & Date
No recent earthquake activity has been reported nearby.
Minimum magnitude displayed is 2.5.

Coastal Water Temperatures

Place Temperature
No Stations Reporting

Nearby Weather Stations

Station Location Temp. Heat Index Dew Point Humidity Wind Precip. Elev Updated Type
Northhaven, New Albany, MS 73.4 °F - 72 °F 95% North  at  3.2 mph - / hr 364 ft 8:49 AM CDT Normal
APRSWXNET Sherman MS , Belden, MS 71 °F - 68 °F 89% WSW  at  1 mph 0.00 in / hr 360 ft 8:03 AM CDT MADIS
Georgetown in The Villages, Tupelo, MS 80.4 °F 85 °F 73 °F 78% SE  at  1.7 mph - / hr 312 ft 8:51 AM CDT Normal
NE Mississippi near Tupelo, Baldwyn, MS 72.3 °F - 71 °F 97% West  at  0.0 mph - / hr 341 ft 8:38 AM CDT Normal
Lee Acres, Tupelo, MS 75.2 °F 75 °F 71 °F 88% NNW  at  3.0 mph 0.00 in / hr 340 ft 8:51 AM CDT Rapid Fire

Show More Stations Show Fewer Stations